createdAt,value
2022-08-07T00:02:59.367Z,16.78
2022-08-07T00:08:02.259Z,16.64
2022-08-07T00:13:23.538Z,16.53
2022-08-07T00:18:28.646Z,16.47
2022-08-07T00:23:41.576Z,16.48
2022-08-07T00:28:45.993Z,16.43
2022-08-07T00:33:57.168Z,16.43
2022-08-07T00:38:59.799Z,16.34
2022-08-07T00:44:02.969Z,16.27
2022-08-07T00:49:04.655Z,16.24
2022-08-07T00:54:07.647Z,16.15
2022-08-07T00:59:14.122Z,16.09
2022-08-07T01:04:24.784Z,16.13
2022-08-07T01:10:03.845Z,16.17
2022-08-07T01:14:48.534Z,16.03
2022-08-07T01:20:06.540Z,16.08
2022-08-07T01:25:54.154Z,16.07
2022-08-07T01:30:38.788Z,15.95
2022-08-07T01:35:54.130Z,15.90
2022-08-07T01:41:02.481Z,15.91
2022-08-07T01:46:05.254Z,15.90
2022-08-07T01:51:58.723Z,15.72
2022-08-07T01:56:49.337Z,15.67
2022-08-07T02:03:05.700Z,15.65
2022-08-07T02:07:50.624Z,15.70
2022-08-07T02:13:03.233Z,15.58
2022-08-07T02:18:29.943Z,15.59
2022-08-07T02:23:36.676Z,15.57
2022-08-07T02:28:40.665Z,15.52
2022-08-07T02:34:03.930Z,15.54
2022-08-07T02:39:43.004Z,15.44
2022-08-07T02:44:49.806Z,15.52
2022-08-07T02:49:59.567Z,15.52
2022-08-07T02:55:27.715Z,15.44
2022-08-07T03:00:35.187Z,15.30
2022-08-07T03:05:39.444Z,15.33
2022-08-07T03:10:47.133Z,15.34
2022-08-07T03:15:56.559Z,15.19
2022-08-07T03:21:04.356Z,15.20
2022-08-07T03:26:08.638Z,15.12
2022-08-07T03:31:43.409Z,15.09
2022-08-07T03:36:48.752Z,15.02
2022-08-07T03:41:51.536Z,15.07
2022-08-07T03:47:13.144Z,15.07
2022-08-07T03:52:26.219Z,15.04
2022-08-07T03:58:34.194Z,14.99
2022-08-07T04:02:56.791Z,15.00
2022-08-07T04:08:05.290Z,14.96
2022-08-07T04:13:07.811Z,14.89
2022-08-07T04:18:56.261Z,14.79
2022-08-07T04:23:43.457Z,14.90
2022-08-07T04:29:03.117Z,14.81
2022-08-07T04:34:06.807Z,14.81
2022-08-07T04:39:25.454Z,14.86
2022-08-07T04:44:28.481Z,14.82
2022-08-07T04:50:03.932Z,14.73
2022-08-07T04:55:14.987Z,14.78
2022-08-07T05:01:13.337Z,14.71
2022-08-07T05:06:42.929Z,14.72
2022-08-07T05:11:58.079Z,14.69
2022-08-07T05:17:11.663Z,14.76
2022-08-07T05:22:19.111Z,14.84
2022-08-07T05:28:02.974Z,14.94
2022-08-07T05:32:55.858Z,15.10
2022-08-07T05:38:09.055Z,15.17
2022-08-07T05:43:14.018Z,15.29
2022-08-07T05:48:19.907Z,15.36
2022-08-07T05:54:12.982Z,15.57
2022-08-07T05:58:52.431Z,15.55
2022-08-07T06:04:01.243Z,15.66
2022-08-07T06:09:10.833Z,15.78
2022-08-07T06:14:20.755Z,15.85
2022-08-07T06:19:57.779Z,16.02
2022-08-07T06:24:56.778Z,16.08
2022-08-07T06:30:00.957Z,16.19
2022-08-07T06:35:03.390Z,16.27
2022-08-07T06:40:21.069Z,16.35
2022-08-07T06:45:25.186Z,16.49
2022-08-07T06:50:33.510Z,16.58
2022-08-07T06:55:53.431Z,16.63
2022-08-07T07:01:11.920Z,16.61
2022-08-07T07:06:26.568Z,16.52
2022-08-07T07:12:09.603Z,16.74
2022-08-07T07:16:59.807Z,16.81
2022-08-07T07:22:05.289Z,17.01
2022-08-07T07:27:17.033Z,16.98
2022-08-07T07:32:21.870Z,17.03
2022-08-07T07:37:49.432Z,17.03
2022-08-07T07:42:54.196Z,17.12
2022-08-07T07:47:58.871Z,17.27
2022-08-07T07:53:02.447Z,17.42
2022-08-07T07:58:05.915Z,17.41
2022-08-07T08:03:16.737Z,17.70
2022-08-07T08:08:35.088Z,17.73
2022-08-07T08:13:53.910Z,18.07
2022-08-07T08:19:00.531Z,18.31
2022-08-07T08:24:44.881Z,18.58
2022-08-07T08:29:56.236Z,18.65
2022-08-07T08:35:00.006Z,18.84
2022-08-07T08:40:02.819Z,19.08
2022-08-07T08:45:14.746Z,19.09
2022-08-07T08:50:35.144Z,19.28
2022-08-07T08:55:53.915Z,19.18
2022-08-07T09:01:16.195Z,19.12
2022-08-07T09:06:47.945Z,19.36
2022-08-07T09:12:20.283Z,19.68
2022-08-07T09:18:16.888Z,19.88
2022-08-07T09:24:33.733Z,20.13
2022-08-07T09:30:04.374Z,20.41
2022-08-07T09:36:04.048Z,20.54
2022-08-07T09:40:47.976Z,20.63
2022-08-07T09:47:25.421Z,20.55
2022-08-07T09:52:16.848Z,20.91
2022-08-07T09:57:46.767Z,21.09
2022-08-07T10:08:15.810Z,21.28
2022-08-07T10:14:04.410Z,21.56
2022-08-07T10:19:45.745Z,21.94
2022-08-07T10:24:55.073Z,22.08
2022-08-07T10:30:12.351Z,22.12
2022-08-07T10:35:56.561Z,22.41
2022-08-07T10:41:52.083Z,22.41
2022-08-07T10:46:50.063Z,22.65
2022-08-07T10:52:02.121Z,23.00
2022-08-07T10:57:18.277Z,23.06
2022-08-07T11:03:01.031Z,23.25
2022-08-07T11:08:17.804Z,23.13
2022-08-07T11:14:46.028Z,23.21
2022-08-07T11:20:24.370Z,23.50
2022-08-07T11:25:48.054Z,23.46
2022-08-07T11:31:08.703Z,23.52
2022-08-07T11:37:04.326Z,23.82
2022-08-07T11:42:18.701Z,23.96
2022-08-07T11:47:55.973Z,24.01
2022-08-07T11:53:16.926Z,24.18
2022-08-07T11:59:22.245Z,24.37
2022-08-07T12:04:45.984Z,24.31
2022-08-07T12:10:05.831Z,24.33
2022-08-07T12:15:46.034Z,24.14
2022-08-07T12:20:55.977Z,23.84
2022-08-07T12:26:29.061Z,24.03
2022-08-07T12:31:52.914Z,24.27
2022-08-07T12:37:08.128Z,24.30
2022-08-07T12:42:22.876Z,24.59
2022-08-07T12:47:37.848Z,24.67
2022-08-07T12:52:55.263Z,24.65
2022-08-07T12:58:02.007Z,24.79
2022-08-07T13:03:55.013Z,24.79
2022-08-07T13:10:20.354Z,24.73
2022-08-07T13:15:29.294Z,24.86
2022-08-07T13:20:51.064Z,24.62
2022-08-07T13:26:35.563Z,24.69
2022-08-07T13:31:59.947Z,24.76
2022-08-07T13:37:40.895Z,24.94
2022-08-07T13:42:44.070Z,25.12
2022-08-07T13:48:05.540Z,24.72
2022-08-07T13:53:10.469Z,24.89
2022-08-07T13:58:36.227Z,24.66
2022-08-07T14:04:07.754Z,24.72
2022-08-07T14:09:09.970Z,24.86
2022-08-07T14:14:25.249Z,24.87
2022-08-07T14:20:43.150Z,25.09
2022-08-07T14:25:17.733Z,24.96
2022-08-07T14:30:32.354Z,24.52
2022-08-07T14:41:03.888Z,24.60
2022-08-07T14:46:08.536Z,24.84
2022-08-07T14:51:16.160Z,24.83
2022-08-07T15:01:51.107Z,24.69
2022-08-07T15:06:53.782Z,24.60
2022-08-07T15:12:07.947Z,24.34
2022-08-07T15:17:16.770Z,24.07
2022-08-07T15:22:31.145Z,23.70
2022-08-07T15:27:41.112Z,23.73
2022-08-07T15:33:19.196Z,23.90
2022-08-07T15:38:32.924Z,23.77
2022-08-07T15:44:03.655Z,23.94
2022-08-07T15:49:12.869Z,23.93
2022-08-07T15:54:17.926Z,23.83
2022-08-07T15:59:38.949Z,23.83
2022-08-07T16:04:44.264Z,23.92
2022-08-07T16:09:57.311Z,23.79
2022-08-07T16:15:54.899Z,23.80
2022-08-07T16:21:44.106Z,23.80
2022-08-07T16:26:34.826Z,23.95
2022-08-07T16:31:49.994Z,23.70
2022-08-07T16:38:03.832Z,23.49
2022-08-07T16:42:59.308Z,23.44
2022-08-07T16:48:28.647Z,23.56
2022-08-07T16:54:06.439Z,23.46
2022-08-07T16:59:46.962Z,23.41
2022-08-07T17:05:15.191Z,23.31
2022-08-07T17:10:54.271Z,23.25
2022-08-07T17:16:02.384Z,23.21
2022-08-07T17:21:18.419Z,23.12
2022-08-07T17:26:36.820Z,23.10
2022-08-07T17:32:02.929Z,22.99
2022-08-07T17:38:06.543Z,22.80
2022-08-07T17:42:59.418Z,22.76
2022-08-07T17:48:12.923Z,22.72
2022-08-07T17:53:59.812Z,22.58
2022-08-07T17:59:04.019Z,22.51
2022-08-07T18:04:48.025Z,22.40
2022-08-07T18:10:06.470Z,22.36
2022-08-07T18:15:22.653Z,22.15
2022-08-07T18:21:04.307Z,22.05
2022-08-07T18:26:05.293Z,22.00
2022-08-07T18:31:23.909Z,21.94
2022-08-07T18:36:53.709Z,21.80
2022-08-07T18:42:06.580Z,21.73
2022-08-07T18:47:22.624Z,21.61
2022-08-07T18:52:37.700Z,21.50
2022-08-07T18:57:58.650Z,21.43
2022-08-07T19:03:16.020Z,21.34
2022-08-07T19:08:28.910Z,21.22
2022-08-07T19:13:45.817Z,21.16
2022-08-07T19:19:03.929Z,21.08
2022-08-07T19:24:30.835Z,21.04
2022-08-07T19:31:04.457Z,20.91
2022-08-07T19:35:07.037Z,20.63
2022-08-07T19:40:10.690Z,20.60
2022-08-07T19:46:06.154Z,20.61
2022-08-07T19:50:46.550Z,20.58
2022-08-07T19:55:58.018Z,20.52
2022-08-07T20:01:01.735Z,20.44
2022-08-07T20:06:06.274Z,20.29
2022-08-07T20:11:34.197Z,20.21
2022-08-07T20:16:48.055Z,20.11
2022-08-07T20:21:57.538Z,20.05
2022-08-07T20:27:07.510Z,20.02
2022-08-07T20:32:11.419Z,19.91
2022-08-07T20:37:29.537Z,19.81
2022-08-07T20:42:33.615Z,19.76
2022-08-07T20:47:56.724Z,19.72
2022-08-07T20:53:00.237Z,19.74
2022-08-07T20:58:12.024Z,19.63
2022-08-07T21:03:23.180Z,19.63
2022-08-07T21:08:38.043Z,19.59
2022-08-07T21:14:16.164Z,19.54
2022-08-07T21:19:14.016Z,19.48
2022-08-07T21:24:27.299Z,19.37
2022-08-07T21:30:00.741Z,19.39
2022-08-07T21:35:17.252Z,19.38
2022-08-07T21:40:58.397Z,19.41
2022-08-07T21:46:24.521Z,19.39
2022-08-07T21:51:51.170Z,19.31
2022-08-07T21:57:44.456Z,19.23
2022-08-07T22:03:06.602Z,19.16
2022-08-07T22:08:10.532Z,19.04
2022-08-07T22:13:15.268Z,19.07
2022-08-07T22:18:35.715Z,18.97
2022-08-07T22:23:53.168Z,18.96
2022-08-07T22:29:33.878Z,18.87
2022-08-07T22:35:13.004Z,18.90
2022-08-07T22:40:43.077Z,18.64
2022-08-07T22:46:40.812Z,18.58
2022-08-07T22:52:10.063Z,18.52
2022-08-07T22:57:37.194Z,18.43
2022-08-07T23:02:58.588Z,18.32
2022-08-07T23:08:04.840Z,18.27
2022-08-07T23:13:22.137Z,18.18
2022-08-07T23:19:13.659Z,18.01
2022-08-07T23:24:47.658Z,18.03
2022-08-07T23:30:39.500Z,18.05
2022-08-07T23:35:58.939Z,18.03
2022-08-07T23:42:01.383Z,18.00
2022-08-07T23:47:21.014Z,17.75
2022-08-07T23:53:49.643Z,17.57
2022-08-07T23:59:10.553Z,17.50
